createdAt,value
2019-02-12T17:40:44.481Z,7.50
2019-02-12T17:43:13.417Z,6.50
2019-02-12T17:45:42.359Z,6.40
2019-02-12T17:48:11.297Z,6.40
2019-02-12T17:50:40.152Z,6.30
2019-02-12T17:53:09.637Z,6.30
2019-02-12T17:55:38.582Z,6.30
2019-02-12T17:58:07.518Z,6.30
2019-02-12T18:00:40.169Z,6.20
2019-02-12T18:03:09.205Z,6.20
2019-02-12T18:05:38.501Z,6.20
2019-02-12T18:08:07.385Z,6.20
2019-02-12T18:10:36.497Z,6.20
2019-02-12T18:13:05.374Z,6.20
2019-02-12T18:15:34.229Z,6.10
2019-02-12T18:18:03.197Z,6.10
2019-02-12T18:20:32.297Z,6.10
2019-02-12T18:23:01.322Z,6.10
2019-02-12T18:25:30.845Z,6.00
2019-02-12T18:28:00.827Z,6.00
2019-02-12T18:30:29.829Z,5.90
2019-02-12T18:32:58.713Z,5.90
2019-02-12T18:35:27.665Z,5.90
2019-02-12T18:37:57.056Z,5.80
2019-02-12T18:40:25.981Z,5.80
2019-02-12T18:42:54.952Z,5.80
2019-02-12T18:45:24.528Z,5.90
2019-02-12T18:47:53.504Z,5.90
2019-02-12T18:50:23.020Z,5.90
2019-02-12T18:52:51.973Z,5.90
2019-02-12T18:55:20.944Z,5.80
2019-02-12T18:57:49.940Z,5.80
2019-02-12T19:00:19.702Z,5.80
2019-02-12T19:02:48.671Z,5.80
2019-02-12T19:05:17.736Z,5.80
2019-02-12T19:07:46.688Z,5.80
2019-02-12T19:10:15.764Z,5.80
2019-02-12T19:12:45.238Z,5.80
2019-02-12T19:15:15.352Z,5.70
2019-02-12T19:17:46.913Z,5.70
2019-02-12T19:20:15.872Z,5.70
2019-02-12T19:22:44.768Z,5.60
2019-02-12T19:25:13.865Z,5.70
2019-02-12T19:27:42.813Z,5.70
2019-02-12T19:30:13.421Z,5.70
2019-02-12T19:32:42.769Z,5.70
2019-02-12T19:35:11.849Z,5.70
2019-02-12T19:37:41.008Z,5.70
2019-02-12T19:40:10.275Z,5.70
2019-02-12T19:42:39.145Z,5.70
2019-02-12T19:45:09.321Z,5.70
2019-02-12T19:47:38.200Z,5.70
2019-02-12T19:50:08.033Z,5.70
2019-02-12T19:52:36.969Z,5.80
2019-02-12T19:55:06.769Z,5.80
2019-02-12T19:57:35.724Z,5.70
2019-02-12T20:00:05.714Z,5.80
2019-02-12T20:02:34.656Z,5.80
2019-02-12T20:05:04.966Z,5.80
2019-02-12T20:07:33.986Z,5.80
2019-02-12T20:10:03.358Z,5.80
2019-02-12T20:12:32.390Z,5.80
2019-02-12T20:15:01.316Z,5.80
2019-02-12T20:17:30.205Z,5.80
2019-02-12T20:19:59.171Z,5.80
2019-02-12T20:22:28.114Z,5.70
2019-02-12T20:24:57.124Z,5.70
2019-02-12T20:27:26.199Z,5.80
2019-02-12T20:29:55.246Z,5.80
2019-02-12T20:32:24.222Z,5.80
2019-02-12T20:34:53.435Z,5.70
2019-02-12T20:37:23.046Z,5.70
2019-02-12T20:39:52.011Z,5.70
2019-02-12T20:42:21.019Z,5.70
2019-02-12T20:44:50.223Z,5.70
2019-02-12T20:47:19.187Z,5.70
2019-02-12T20:49:48.090Z,5.70
2019-02-12T20:52:17.111Z,5.60
2019-02-12T20:54:46.555Z,5.60
2019-02-12T20:57:15.641Z,5.60
2019-02-12T20:59:44.563Z,5.60
2019-02-12T21:02:13.471Z,5.70
2019-02-12T21:04:42.471Z,5.60
2019-02-12T21:07:11.371Z,5.70
2019-02-12T21:09:40.427Z,5.60
2019-02-12T21:12:09.549Z,5.70
2019-02-12T21:14:38.559Z,5.70
2019-02-12T21:17:07.808Z,5.70
2019-02-12T21:19:36.780Z,5.70
2019-02-12T21:22:05.743Z,5.70
2019-02-12T21:24:34.783Z,5.70
2019-02-12T21:27:03.799Z,5.80
2019-02-12T21:29:32.955Z,5.80
2019-02-12T21:32:02.205Z,5.80
2019-02-12T21:34:31.103Z,5.80
2019-02-12T21:37:00.067Z,5.80
2019-02-12T21:39:29.051Z,5.80
2019-02-12T21:41:58.025Z,5.80
2019-02-12T21:44:26.936Z,5.90
2019-02-12T21:46:55.842Z,5.90
2019-02-12T21:49:24.723Z,5.90
2019-02-12T21:51:53.599Z,5.90
2019-02-12T21:54:23.499Z,5.90
2019-02-12T21:56:52.455Z,5.90
2019-02-12T21:59:21.311Z,5.90
2019-02-12T22:01:50.199Z,5.90
2019-02-12T22:04:19.519Z,6.00
2019-02-12T22:06:48.559Z,6.00
2019-02-12T22:09:17.463Z,6.00
2019-02-12T22:11:46.411Z,6.00
2019-02-12T22:14:15.255Z,6.10
2019-02-12T22:16:44.287Z,6.10
2019-02-12T22:19:13.148Z,6.10
2019-02-12T22:21:42.377Z,6.20
2019-02-12T22:24:11.339Z,6.10
2019-02-12T22:26:40.361Z,6.20
2019-02-12T22:29:09.243Z,6.30
2019-02-12T22:31:38.119Z,6.20
2019-02-12T22:34:07.083Z,6.30
2019-02-12T22:36:36.108Z,6.30
2019-02-12T22:39:06.603Z,6.30
2019-02-12T22:41:35.493Z,6.30
2019-02-12T22:44:04.524Z,6.20
2019-02-12T22:46:33.457Z,6.30
2019-02-12T22:49:02.332Z,6.30
2019-02-12T22:51:31.588Z,6.30
2019-02-12T22:54:00.536Z,6.30
2019-02-12T22:56:29.468Z,6.30
2019-02-12T22:58:58.356Z,6.30
2019-02-12T23:01:37.000Z,6.30
2019-02-12T23:04:06.241Z,6.30
2019-02-12T23:06:35.280Z,6.30
2019-02-12T23:09:08.656Z,6.20
2019-02-12T23:11:37.695Z,6.20
2019-02-12T23:14:06.684Z,6.30
2019-02-12T23:16:36.064Z,6.20
2019-02-12T23:19:05.228Z,6.20
2019-02-12T23:21:34.276Z,6.30
2019-02-12T23:24:03.556Z,6.20
2019-02-12T23:26:32.420Z,6.20
2019-02-12T23:29:01.280Z,6.20
2019-02-12T23:31:30.172Z,6.20
2019-02-12T23:33:59.123Z,6.20
2019-02-12T23:36:28.113Z,6.20
2019-02-12T23:38:56.985Z,6.20
2019-02-12T23:41:25.908Z,6.20
2019-02-12T23:43:55.211Z,6.20
2019-02-12T23:46:24.228Z,6.20
2019-02-12T23:48:53.204Z,6.20
2019-02-12T23:51:22.157Z,6.10
2019-02-12T23:53:51.260Z,6.10
2019-02-12T23:56:20.309Z,6.10
2019-02-12T23:58:49.524Z,6.10
